Time;durP1;ratioP1;P1;durP2;ratioP2;P2;SDS_P1;SDS_P2;PMS_P1;PMS_P2;Temp;Humidity;BMP_temperature;BMP_pressure;BME280_temperature;BME280_humidity;BME280_pressure;Samples;Min_cycle;Max_cycle;Signal;HPM_P1;HPM_P2
2022/08/08 00:01:28;;;;;;;;;;;29.40;90.40;;;;;;5102408;28;20209;-55
2022/08/08 00:04:11;;;;;;;;;;;29.40;90.60;;;;;;5106898;28;19979;-56
2022/08/08 00:06:43;;;;;;;;;;;29.40;90.90;;;;;;5106962;28;20092;-58
2022/08/08 00:09:32;;;;;;;;;;;29.40;91.00;;;;;;5106907;28;20033;-58
2022/08/08 00:12:00;;;;;;;;;;;29.40;91.00;;;;;;5107042;28;19912;-59
2022/08/08 00:14:26;;;;;;;;;;;29.30;91.10;;;;;;5106673;28;19912;-55
2022/08/08 00:16:58;;;;;;;;;;;29.30;91.20;;;;;;5107004;28;19929;-55
2022/08/08 00:19:37;;;;;;;;;;;29.30;91.30;;;;;;5106470;28;19995;-56
2022/08/08 00:22:18;;;;;;;;;;;29.30;91.50;;;;;;5106981;28;19997;-55
2022/08/08 00:24:53;;;;;;;;;;;29.30;91.70;;;;;;5106540;28;19912;-55
2022/08/08 00:27:20;;;;;;;;;;;29.20;91.80;;;;;;5107099;28;19915;-55
2022/08/08 00:29:54;;;;;;;;;;;29.20;91.80;;;;;;5106371;28;19951;-58
2022/08/08 00:32:32;;;;;;;;;;;29.20;91.90;;;;;;5106735;28;19915;-56
2022/08/08 00:35:13;;;;;;;;;;;29.20;92.10;;;;;;5106163;28;19947;-54
2022/08/08 00:37:52;;;;;;;;;;;29.10;92.00;;;;;;5106239;28;20196;-54
2022/08/08 00:40:24;;;;;;;;;;;29.10;92.10;;;;;;5106076;28;19957;-56
2022/08/08 00:43:08;;;;;;;;;;;29.10;92.10;;;;;;5106052;28;19916;-58
2022/08/08 00:45:53;;;;;;;;;;;29.10;92.10;;;;;;5106143;28;19947;-56
2022/08/08 00:48:25;;;;;;;;;;;29.10;92.40;;;;;;5106233;28;19912;-58
2022/08/08 00:51:10;;;;;;;;;;;29.10;92.20;;;;;;5106031;28;19912;-56
2022/08/08 00:53:39;;;;;;;;;;;29.00;92.10;;;;;;5106088;28;19958;-57
2022/08/08 00:56:11;;;;;;;;;;;29.00;92.10;;;;;;5105786;28;19908;-57
2022/08/08 00:58:43;;;;;;;;;;;29.00;92.00;;;;;;5106063;28;19916;-58
2022/08/08 01:01:16;;;;;;;;;;;29.00;92.10;;;;;;5105880;28;19908;-58
2022/08/08 01:03:51;;;;;;;;;;;29.00;92.10;;;;;;5106155;28;19919;-56
2022/08/08 01:06:36;;;;;;;;;;;29.00;92.10;;;;;;5106006;28;20166;-59
2022/08/08 01:09:20;;;;;;;;;;;29.00;92.10;;;;;;5105823;28;20200;-55
2022/08/08 01:11:53;;;;;;;;;;;28.90;92.20;;;;;;5105724;28;19908;-55
2022/08/08 01:14:22;;;;;;;;;;;28.90;92.30;;;;;;5105461;28;19979;-55
2022/08/08 01:16:51;;;;;;;;;;;28.90;92.30;;;;;;5105877;28;19966;-55
2022/08/08 01:19:36;;;;;;;;;;;28.90;92.40;;;;;;5105289;28;19919;-59
2022/08/08 01:22:15;;;;;;;;;;;28.90;92.30;;;;;;5105743;28;19974;-61
2022/08/08 01:25:08;;;;;;;;;;;28.90;92.30;;;;;;5105378;28;19920;-56
2022/08/08 01:27:48;;;;;;;;;;;28.90;92.40;;;;;;5066827;28;19950;-56
2022/08/08 01:30:20;;;;;;;;;;;28.80;92.30;;;;;;5105242;28;20191;-50
2022/08/08 01:33:06;;;;;;;;;;;28.80;92.50;;;;;;5104897;28;19968;-53
2022/08/08 01:35:50;;;;;;;;;;;28.80;92.60;;;;;;5105239;28;19933;-48
2022/08/08 01:38:22;;;;;;;;;;;28.70;92.50;;;;;;5104998;28;19912;-57
2022/08/08 01:40:57;;;;;;;;;;;28.70;92.50;;;;;;5105066;28;19914;-56
2022/08/08 01:43:33;;;;;;;;;;;28.70;92.50;;;;;;5104804;28;19916;-58
2022/08/08 01:46:02;;;;;;;;;;;28.70;92.50;;;;;;5104981;28;19908;-59
2022/08/08 01:48:35;;;;;;;;;;;28.70;92.50;;;;;;5104880;28;19919;-54
2022/08/08 01:51:20;;;;;;;;;;;28.70;92.50;;;;;;5104966;28;19971;-55
2022/08/08 01:53:52;;;;;;;;;;;28.70;92.60;;;;;;5104787;28;20143;-61
2022/08/08 01:56:22;;;;;;;;;;;28.70;92.50;;;;;;5105017;28;19908;-57
2022/08/08 01:59:03;;;;;;;;;;;28.70;92.50;;;;;;5104805;28;19949;-55
2022/08/08 02:01:58;;;;;;;;;;;28.70;92.40;;;;;;5104865;28;19912;-54
2022/08/08 02:04:27;;;;;;;;;;;28.70;92.40;;;;;;5104503;28;20076;-54
2022/08/08 02:06:53;;;;;;;;;;;28.70;92.30;;;;;;5104532;28;19908;-56
2022/08/08 02:09:38;;;;;;;;;;;28.70;92.10;;;;;;5104168;28;19907;-55
2022/08/08 02:12:22;;;;;;;;;;;28.70;92.00;;;;;;5104881;28;20126;-57
2022/08/08 02:14:52;;;;;;;;;;;28.70;92.00;;;;;;5104548;28;19935;-54
2022/08/08 02:17:27;;;;;;;;;;;28.70;91.90;;;;;;5104846;28;19930;-53
2022/08/08 02:19:57;;;;;;;;;;;28.70;91.80;;;;;;5104468;28;19962;-54
2022/08/08 02:22:38;;;;;;;;;;;28.70;91.70;;;;;;5104555;28;20091;-58
2022/08/08 02:25:07;;;;;;;;;;;28.70;91.70;;;;;;5104454;28;20212;-59
2022/08/08 02:27:52;;;;;;;;;;;28.70;91.80;;;;;;5104173;28;19912;-61
2022/08/08 02:30:25;;;;;;;;;;;28.60;91.70;;;;;;5104280;28;19979;-54
2022/08/08 02:33:10;;;;;;;;;;;28.60;91.80;;;;;;5104061;28;19918;-55
2022/08/08 02:35:37;;;;;;;;;;;28.60;91.70;;;;;;5104160;28;19911;-54
2022/08/08 02:38:18;;;;;;;;;;;28.60;91.80;;;;;;5104099;28;19919;-55
2022/08/08 02:41:02;;;;;;;;;;;28.60;91.70;;;;;;5103960;28;19908;-55
2022/08/08 02:43:43;;;;;;;;;;;28.60;91.70;;;;;;5103845;28;20111;-54
2022/08/08 02:46:24;;;;;;;;;;;28.60;91.70;;;;;;5104129;28;19908;-55
2022/08/08 02:49:17;;;;;;;;;;;28.60;91.70;;;;;;5103758;28;19979;-54
2022/08/08 02:51:46;;;;;;;;;;;28.50;91.60;;;;;;5103772;28;19922;-54
2022/08/08 02:54:28;;;;;;;;;;;28.50;91.70;;;;;;5103768;28;19912;-59
2022/08/08 02:57:19;;;;;;;;;;;28.50;91.60;;;;;;5104095;28;19914;-54
2022/08/08 03:00:07;;;;;;;;;;;28.40;91.60;;;;;;5103765;28;19912;-56
2022/08/08 03:02:52;;;;;;;;;;;28.40;91.60;;;;;;5103753;28;19959;-56
2022/08/08 03:05:36;;;;;;;;;;;28.40;91.60;;;;;;5103689;28;19908;-56
2022/08/08 03:08:20;;;;;;;;;;;28.40;91.60;;;;;;5103895;28;20196;-56
2022/08/08 03:10:53;;;;;;;;;;;28.40;91.50;;;;;;5103739;28;20203;-56
2022/08/08 03:13:31;;;;;;;;;;;28.40;91.50;;;;;;5103751;28;19912;-56
2022/08/08 03:16:00;;;;;;;;;;;28.40;91.50;;;;;;5103530;28;20237;-62
2022/08/08 03:18:35;;;;;;;;;;;28.30;91.40;;;;;;5104282;28;19919;-63
2022/08/08 03:21:01;;;;;;;;;;;28.30;91.50;;;;;;5107877;28;20003;-61
2022/08/08 03:23:29;;;;;;;;;;;28.30;91.50;;;;;;5107617;28;20203;-61
2022/08/08 03:25:56;;;;;;;;;;;28.30;91.50;;;;;;5107687;28;19931;-55
2022/08/08 03:28:40;;;;;;;;;;;28.30;91.40;;;;;;5107621;28;19920;-60
2022/08/08 03:33:51;;;;;;;;;;;28.30;91.30;;;;;;5107406;28;19958;-55
2022/08/08 03:36:17;;;;;;;;;;;28.20;91.30;;;;;;5107543;28;20066;-55
2022/08/08 03:38:50;;;;;;;;;;;28.20;91.30;;;;;;5107524;28;19912;-55
2022/08/08 03:41:17;;;;;;;;;;;28.20;91.30;;;;;;5107376;28;20172;-56
2022/08/08 03:44:03;;;;;;;;;;;28.20;91.40;;;;;;5107378;28;19908;-55
2022/08/08 03:46:29;;;;;;;;;;;28.20;91.40;;;;;;5106955;28;19908;-55
2022/08/08 03:49:00;;;;;;;;;;;28.20;91.40;;;;;;5107289;28;19912;-54
2022/08/08 03:51:26;;;;;;;;;;;28.20;91.40;;;;;;5107199;28;19958;-57
2022/08/08 03:53:52;;;;;;;;;;;28.20;91.30;;;;;;5106867;28;19979;-56
2022/08/08 03:56:19;;;;;;;;;;;28.10;91.30;;;;;;5107375;28;20132;-56
2022/08/08 03:58:49;;;;;;;;;;;28.10;91.40;;;;;;5106956;28;19908;-53
2022/08/08 04:01:15;;;;;;;;;;;28.10;91.40;;;;;;5107050;28;19943;-53
2022/08/08 04:03:44;;;;;;;;;;;28.10;91.40;;;;;;5107150;28;19908;-56
2022/08/08 04:06:10;;;;;;;;;;;28.10;91.30;;;;;;5107016;28;19981;-61
2022/08/08 04:08:37;;;;;;;;;;;28.00;91.40;;;;;;5106732;28;19912;-63
2022/08/08 04:11:03;;;;;;;;;;;28.10;91.50;;;;;;5106798;28;19908;-57
2022/08/08 04:13:30;;;;;;;;;;;28.00;91.50;;;;;;5106742;28;19912;-56
2022/08/08 04:15:56;;;;;;;;;;;28.00;91.50;;;;;;5106648;28;19915;-62
2022/08/08 04:18:22;;;;;;;;;;;28.10;91.50;;;;;;5106783;28;20201;-62
2022/08/08 04:20:48;;;;;;;;;;;28.00;91.60;;;;;;5106832;28;19911;-62
2022/08/08 04:23:14;;;;;;;;;;;28.00;91.70;;;;;;5106445;28;19961;-56
2022/08/08 04:25:43;;;;;;;;;;;28.00;91.70;;;;;;5106557;28;19915;-52
2022/08/08 04:28:09;;;;;;;;;;;28.00;91.70;;;;;;5106576;28;20251;-54
2022/08/08 04:30:35;;;;;;;;;;;28.00;91.70;;;;;;5106104;28;19954;-54
2022/08/08 04:33:01;;;;;;;;;;;28.00;91.80;;;;;;5106928;28;19908;-54
2022/08/08 04:35:28;;;;;;;;;;;28.00;91.80;;;;;;5106351;28;19920;-53
2022/08/08 04:37:54;;;;;;;;;;;28.00;91.80;;;;;;5106447;28;19916;-54
2022/08/08 04:40:20;;;;;;;;;;;27.90;91.80;;;;;;5106208;28;20133;-55
2022/08/08 04:42:47;;;;;;;;;;;27.90;91.80;;;;;;5106225;28;19999;-55
2022/08/08 04:45:13;;;;;;;;;;;27.90;91.80;;;;;;5106079;28;20251;-55
2022/08/08 04:47:39;;;;;;;;;;;27.90;91.80;;;;;;5105823;28;19974;-60
2022/08/08 04:50:06;;;;;;;;;;;27.90;91.80;;;;;;5106137;28;19954;-54
2022/08/08 04:52:32;;;;;;;;;;;27.90;91.80;;;;;;5106069;28;20116;-55
2022/08/08 04:54:58;;;;;;;;;;;27.90;91.80;;;;;;5105740;28;19979;-53
2022/08/08 04:57:24;;;;;;;;;;;27.90;91.70;;;;;;5106493;28;19908;-55
2022/08/08 04:59:50;;;;;;;;;;;27.80;91.70;;;;;;5105926;28;19912;-54
2022/08/08 05:02:16;;;;;;;;;;;27.80;91.70;;;;;;5105967;28;19908;-55
2022/08/08 05:04:43;;;;;;;;;;;27.80;91.80;;;;;;5105830;28;19951;-55
2022/08/08 05:07:09;;;;;;;;;;;27.80;91.80;;;;;;5106423;28;20084;-55
2022/08/08 05:09:35;;;;;;;;;;;27.80;91.80;;;;;;5105954;28;19909;-58
2022/08/08 05:12:02;;;;;;;;;;;27.80;91.80;;;;;;5106431;28;20072;-55
2022/08/08 05:14:28;;;;;;;;;;;27.80;91.80;;;;;;5106111;28;20175;-55
2022/08/08 05:16:55;;;;;;;;;;;27.80;91.90;;;;;;5106209;28;20180;-53
2022/08/08 05:19:21;;;;;;;;;;;27.80;91.90;;;;;;5105726;28;19970;-53
2022/08/08 05:21:48;;;;;;;;;;;27.80;91.80;;;;;;5106175;28;19911;-53
2022/08/08 05:24:15;;;;;;;;;;;27.80;91.80;;;;;;5105596;28;19916;-53
2022/08/08 05:26:45;;;;;;;;;;;27.80;91.80;;;;;;5105763;28;19974;-56
2022/08/08 05:29:11;;;;;;;;;;;27.70;91.90;;;;;;5105638;28;19918;-56
2022/08/08 05:31:38;;;;;;;;;;;27.70;92.00;;;;;;5105993;28;19904;-54
2022/08/08 05:34:12;;;;;;;;;;;27.70;92.00;;;;;;5105707;28;19918;-59
2022/08/08 05:36:40;;;;;;;;;;;27.70;92.00;;;;;;5106000;28;19908;-57
2022/08/08 05:39:08;;;;;;;;;;;27.70;92.00;;;;;;5105449;28;20192;-54
2022/08/08 05:41:35;;;;;;;;;;;27.70;92.00;;;;;;5105235;28;20184;-56
2022/08/08 05:44:17;;;;;;;;;;;27.60;92.00;;;;;;5104900;28;19908;-53
2022/08/08 05:46:44;;;;;;;;;;;27.70;92.00;;;;;;5105544;28;19908;-54
2022/08/08 05:49:10;;;;;;;;;;;27.70;92.00;;;;;;5105198;28;20157;-55
2022/08/08 05:51:36;;;;;;;;;;;27.70;92.00;;;;;;5105167;28;19916;-56
2022/08/08 05:54:02;;;;;;;;;;;27.70;92.00;;;;;;5105152;28;19912;-58
2022/08/08 05:56:29;;;;;;;;;;;27.70;92.00;;;;;;5105489;28;19930;-56
2022/08/08 05:59:06;;;;;;;;;;;27.60;91.90;;;;;;5105094;28;19934;-59
2022/08/08 06:01:32;;;;;;;;;;;27.60;91.80;;;;;;5105334;28;19912;-56
2022/08/08 06:04:02;;;;;;;;;;;27.70;92.00;;;;;;5105236;28;19919;-56
2022/08/08 06:06:29;;;;;;;;;;;27.60;91.90;;;;;;5105044;28;19904;-59
2022/08/08 06:08:58;;;;;;;;;;;27.70;92.00;;;;;;5105055;28;19919;-60
2022/08/08 06:11:25;;;;;;;;;;;27.60;91.90;;;;;;5104846;28;19912;-62
2022/08/08 06:13:52;;;;;;;;;;;27.70;91.90;;;;;;5104705;28;19919;-62
2022/08/08 06:16:19;;;;;;;;;;;27.70;91.90;;;;;;5105173;28;19908;-62
2022/08/08 06:18:46;;;;;;;;;;;27.70;91.80;;;;;;5104829;28;20139;-56
2022/08/08 06:21:14;;;;;;;;;;;27.60;91.70;;;;;;5104773;28;19908;-56
2022/08/08 06:23:40;;;;;;;;;;;27.70;91.60;;;;;;5104709;28;19954;-56
2022/08/08 06:26:09;;;;;;;;;;;27.60;91.70;;;;;;5104672;28;20068;-56
2022/08/08 06:28:55;;;;;;;;;;;27.60;91.70;;;;;;5104517;28;20084;-55
2022/08/08 06:31:22;;;;;;;;;;;27.70;91.50;;;;;;5104288;28;19911;-55
2022/08/08 06:33:51;;;;;;;;;;;27.60;91.50;;;;;;5104384;28;19912;-62
2022/08/08 06:36:20;;;;;;;;;;;27.60;91.40;;;;;;5104819;28;20180;-60
2022/08/08 06:38:49;;;;;;;;;;;27.60;91.40;;;;;;5104547;28;19908;-59
2022/08/08 06:41:16;;;;;;;;;;;27.60;91.50;;;;;;5104440;28;19908;-59
2022/08/08 06:43:46;;;;;;;;;;;27.60;91.50;;;;;;5104870;28;20081;-54
2022/08/08 06:46:12;;;;;;;;;;;27.60;91.30;;;;;;5104596;28;19908;-52
2022/08/08 06:48:38;;;;;;;;;;;27.60;91.40;;;;;;5104360;28;20215;-52
2022/08/08 06:51:04;;;;;;;;;;;27.50;91.30;;;;;;5104152;28;19908;-53
2022/08/08 06:53:31;;;;;;;;;;;27.50;91.30;;;;;;5104073;28;19950;-54
2022/08/08 06:55:57;;;;;;;;;;;27.50;91.10;;;;;;5104525;28;20176;-54
2022/08/08 06:58:23;;;;;;;;;;;27.50;91.10;;;;;;5104384;28;19920;-53
2022/08/08 07:00:50;;;;;;;;;;;27.60;91.10;;;;;;5104466;28;19904;-54
2022/08/08 07:03:32;;;;;;;;;;;27.50;90.90;;;;;;5104021;28;20111;-52
2022/08/08 07:06:00;;;;;;;;;;;27.50;90.80;;;;;;5104524;28;19950;-52
2022/08/08 07:08:33;;;;;;;;;;;27.50;90.60;;;;;;5104252;28;19916;-56
2022/08/08 07:11:02;;;;;;;;;;;27.50;90.60;;;;;;5104287;28;20215;-64
2022/08/08 07:13:36;;;;;;;;;;;27.50;90.60;;;;;;5104236;28;19912;-60
2022/08/08 07:16:15;;;;;;;;;;;27.50;90.50;;;;;;5104266;28;19954;-61
2022/08/08 07:19:04;;;;;;;;;;;27.50;90.60;;;;;;5104323;28;19912;-52
2022/08/08 07:21:35;;;;;;;;;;;27.40;90.50;;;;;;5104247;28;20234;-52
2022/08/08 07:24:12;;;;;;;;;;;27.50;90.50;;;;;;5104226;28;19912;-54
2022/08/08 07:26:39;;;;;;;;;;;27.40;90.40;;;;;;5104267;28;19908;-59
2022/08/08 07:29:05;;;;;;;;;;;27.50;90.40;;;;;;5104214;28;19987;-55
2022/08/08 07:31:32;;;;;;;;;;;27.40;90.30;;;;;;5104071;28;19967;-57
2022/08/08 07:33:58;;;;;;;;;;;27.40;90.30;;;;;;5103916;28;20112;-55
2022/08/08 07:36:25;;;;;;;;;;;27.40;90.30;;;;;;5104222;28;19908;-63
2022/08/08 07:38:51;;;;;;;;;;;27.40;90.40;;;;;;5104066;28;19946;-62
2022/08/08 07:41:20;;;;;;;;;;;27.30;90.20;;;;;;5103765;28;19953;-64
2022/08/08 07:43:48;;;;;;;;;;;27.30;90.20;;;;;;5104159;28;19915;-53
2022/08/08 07:46:14;;;;;;;;;;;27.30;90.20;;;;;;5104189;28;19915;-53
2022/08/08 07:48:40;;;;;;;;;;;27.30;90.20;;;;;;5103777;28;19908;-54
2022/08/08 07:51:08;;;;;;;;;;;27.30;90.10;;;;;;5103748;28;19911;-53
2022/08/08 07:53:40;;;;;;;;;;;27.30;90.00;;;;;;5103891;28;20116;-53
2022/08/08 07:56:08;;;;;;;;;;;27.30;90.00;;;;;;5103838;28;19904;-55
2022/08/08 07:58:38;;;;;;;;;;;27.30;90.00;;;;;;5103750;28;19912;-52
2022/08/08 08:01:05;;;;;;;;;;;27.30;90.00;;;;;;5103864;28;19912;-55
2022/08/08 08:03:33;;;;;;;;;;;27.30;90.00;;;;;;5103745;28;19956;-55
2022/08/08 08:06:02;;;;;;;;;;;27.30;89.90;;;;;;5105083;28;19904;-54
2022/08/08 08:08:38;;;;;;;;;;;27.30;90.00;;;;;;5107335;28;19927;-57
2022/08/08 08:11:06;;;;;;;;;;;27.30;90.00;;;;;;5107121;28;19908;-59
2022/08/08 08:13:39;;;;;;;;;;;27.20;89.80;;;;;;5107190;28;19979;-60
2022/08/08 08:16:06;;;;;;;;;;;27.30;89.80;;;;;;5107187;28;19983;-61
2022/08/08 08:18:36;;;;;;;;;;;27.30;89.50;;;;;;5107076;28;20107;-62
2022/08/08 08:21:02;;;;;;;;;;;27.20;89.70;;;;;;5107296;28;19908;-62
2022/08/08 08:23:29;;;;;;;;;;;27.20;89.50;;;;;;5106893;28;20191;-66
2022/08/08 08:25:55;;;;;;;;;;;27.20;89.50;;;;;;5107166;28;19908;-62
2022/08/08 08:28:23;;;;;;;;;;;27.20;89.50;;;;;;5106991;28;19915;-63
2022/08/08 08:30:49;;;;;;;;;;;27.20;89.60;;;;;;5106742;28;19908;-57
2022/08/08 08:33:15;;;;;;;;;;;27.20;89.70;;;;;;5106837;28;19971;-55
2022/08/08 08:35:41;;;;;;;;;;;27.10;89.70;;;;;;5106883;28;19923;-55
2022/08/08 08:38:07;;;;;;;;;;;27.10;89.90;;;;;;5106689;28;19919;-54
2022/08/08 08:40:33;;;;;;;;;;;27.10;90.00;;;;;;5106815;28;20053;-54
2022/08/08 08:43:01;;;;;;;;;;;27.10;90.10;;;;;;5106889;28;19916;-54
2022/08/08 08:45:28;;;;;;;;;;;27.20;90.10;;;;;;5106380;28;20188;-54
2022/08/08 08:47:54;;;;;;;;;;;27.20;90.20;;;;;;5106546;28;19939;-56
2022/08/08 08:50:25;;;;;;;;;;;27.10;90.30;;;;;;5106628;28;19939;-61
2022/08/08 08:52:51;;;;;;;;;;;27.10;90.30;;;;;;5105930;28;19920;-56
2022/08/08 08:55:18;;;;;;;;;;;27.10;90.40;;;;;;5106300;28;19987;-62
2022/08/08 08:57:47;;;;;;;;;;;27.10;90.40;;;;;;5106509;28;19918;-62
2022/08/08 09:00:14;;;;;;;;;;;27.10;90.50;;;;;;5106147;28;19908;-62
2022/08/08 09:02:41;;;;;;;;;;;27.00;90.60;;;;;;5106227;28;19916;-61
2022/08/08 09:05:07;;;;;;;;;;;27.00;90.70;;;;;;5106200;28;19909;-60
2022/08/08 09:07:36;;;;;;;;;;;27.00;90.80;;;;;;5105996;28;19928;-60
2022/08/08 09:10:03;;;;;;;;;;;27.00;90.90;;;;;;5105999;28;20034;-60
2022/08/08 09:12:31;;;;;;;;;;;27.00;90.90;;;;;;5106362;28;19904;-52
2022/08/08 09:14:57;;;;;;;;;;;27.00;90.90;;;;;;5105863;28;20139;-52
2022/08/08 09:17:24;;;;;;;;;;;27.00;90.90;;;;;;5106273;28;19912;-55
2022/08/08 09:19:59;;;;;;;;;;;27.00;91.00;;;;;;5105961;28;19975;-54
2022/08/08 09:22:25;;;;;;;;;;;26.90;91.00;;;;;;5106054;28;19912;-55
2022/08/08 09:24:53;;;;;;;;;;;26.90;91.10;;;;;;5105985;28;19912;-59
2022/08/08 09:27:19;;;;;;;;;;;26.90;91.20;;;;;;5106166;28;19908;-55
2022/08/08 09:30:07;;;;;;;;;;;26.90;91.10;;;;;;5105660;28;19978;-61
2022/08/08 09:32:43;;;;;;;;;;;26.90;91.00;;;;;;5105570;28;19912;-61
2022/08/08 09:35:10;;;;;;;;;;;26.90;90.90;;;;;;5105450;28;19912;-55
2022/08/08 09:37:47;;;;;;;;;;;26.90;90.90;;;;;;5105490;28;19919;-55
2022/08/08 09:40:17;;;;;;;;;;;26.90;90.90;;;;;;5105269;28;19908;-56
2022/08/08 09:42:45;;;;;;;;;;;26.90;90.90;;;;;;5105204;28;19920;-64
2022/08/08 09:45:27;;;;;;;;;;;26.80;91.00;;;;;;5105359;28;19925;-62
2022/08/08 09:47:53;;;;;;;;;;;26.90;91.00;;;;;;5105574;28;19949;-57
2022/08/08 09:50:22;;;;;;;;;;;26.80;91.00;;;;;;5105203;28;19912;-56
2022/08/08 09:52:49;;;;;;;;;;;26.80;91.20;;;;;;5104782;28;19920;-62
2022/08/08 09:55:15;;;;;;;;;;;26.80;91.00;;;;;;5105167;28;19923;-62
2022/08/08 09:57:44;;;;;;;;;;;26.80;91.10;;;;;;5105355;28;20199;-63
2022/08/08 10:00:11;;;;;;;;;;;26.80;91.10;;;;;;5104957;28;19908;-52
2022/08/08 10:02:39;;;;;;;;;;;26.70;91.10;;;;;;5104964;28;19916;-53
2022/08/08 10:05:09;;;;;;;;;;;26.80;91.10;;;;;;5105060;28;19931;-53
2022/08/08 10:07:35;;;;;;;;;;;26.80;91.10;;;;;;5104935;28;19919;-54
2022/08/08 10:10:03;;;;;;;;;;;26.70;91.20;;;;;;5105218;28;19908;-54
2022/08/08 10:12:33;;;;;;;;;;;26.70;91.20;;;;;;5105286;28;20155;-56
2022/08/08 10:15:00;;;;;;;;;;;26.70;91.20;;;;;;5104705;28;19908;-52
2022/08/08 10:17:26;;;;;;;;;;;26.70;91.00;;;;;;5105205;28;19915;-54
2022/08/08 10:19:55;;;;;;;;;;;26.70;90.90;;;;;;5104882;28;20103;-53
2022/08/08 10:22:23;;;;;;;;;;;26.60;90.90;;;;;;5105028;28;19972;-53
2022/08/08 10:24:52;;;;;;;;;;;26.60;90.80;;;;;;5104850;28;19912;-53
2022/08/08 10:27:19;;;;;;;;;;;26.60;90.80;;;;;;5105177;28;19958;-55
2022/08/08 10:29:53;;;;;;;;;;;26.60;90.70;;;;;;5103987;28;19954;-55
2022/08/08 10:32:31;;;;;;;;;;;26.60;90.70;;;;;;5104911;28;19904;-55
2022/08/08 10:34:59;;;;;;;;;;;26.60;90.70;;;;;;5104396;28;19943;-55
2022/08/08 10:37:31;;;;;;;;;;;26.60;90.70;;;;;;5104944;28;19908;-61
2022/08/08 10:39:58;;;;;;;;;;;26.60;90.60;;;;;;5104626;28;19913;-63
2022/08/08 10:42:31;;;;;;;;;;;26.60;90.60;;;;;;5104556;28;19908;-55
2022/08/08 10:45:05;;;;;;;;;;;26.60;90.60;;;;;;5104222;28;19978;-55
2022/08/08 10:47:31;;;;;;;;;;;26.60;90.60;;;;;;5104816;28;19908;-54
2022/08/08 10:49:59;;;;;;;;;;;26.60;90.50;;;;;;5104409;28;19987;-54
2022/08/08 10:52:26;;;;;;;;;;;26.60;90.50;;;;;;5104340;28;19916;-61
2022/08/08 10:54:56;;;;;;;;;;;26.60;90.40;;;;;;5104256;28;19938;-60
2022/08/08 10:57:22;;;;;;;;;;;26.50;90.40;;;;;;5104644;28;19908;-60
2022/08/08 10:59:55;;;;;;;;;;;26.50;90.40;;;;;;5104063;28;19912;-59
2022/08/08 11:02:31;;;;;;;;;;;26.50;90.40;;;;;;5104478;28;19951;-60
2022/08/08 11:04:58;;;;;;;;;;;26.50;90.50;;;;;;5104094;28;19983;-60
2022/08/08 11:07:26;;;;;;;;;;;26.50;90.50;;;;;;5104727;28;19915;-60
2022/08/08 11:09:52;;;;;;;;;;;26.50;90.60;;;;;;5104102;28;20062;-52
2022/08/08 11:12:18;;;;;;;;;;;26.50;90.70;;;;;;5104643;28;19939;-54
2022/08/08 11:14:51;;;;;;;;;;;26.50;90.80;;;;;;5104054;28;19920;-52
2022/08/08 11:17:20;;;;;;;;;;;26.50;90.80;;;;;;5104461;28;19908;-57
2022/08/08 11:19:46;;;;;;;;;;;26.50;90.80;;;;;;5104014;28;19912;-53
2022/08/08 11:22:13;;;;;;;;;;;26.60;90.60;;;;;;5104183;28;19908;-53
2022/08/08 11:24:39;;;;;;;;;;;26.50;90.30;;;;;;5103990;28;20030;-55
2022/08/08 11:27:07;;;;;;;;;;;26.50;90.40;;;;;;5104509;28;19908;-51
2022/08/08 11:29:35;;;;;;;;;;;26.60;90.30;;;;;;5103804;28;19912;-51
2022/08/08 11:32:02;;;;;;;;;;;26.60;90.50;;;;;;5104368;28;19905;-52
2022/08/08 11:34:31;;;;;;;;;;;26.70;90.40;;;;;;5103824;28;19944;-55
2022/08/08 11:36:58;;;;;;;;;;;26.90;90.20;;;;;;5104148;28;19908;-58
2022/08/08 11:39:25;;;;;;;;;;;27.00;90.00;;;;;;5103975;28;20143;-53
2022/08/08 11:41:52;;;;;;;;;;;27.20;89.90;;;;;;5106852;28;19909;-55
2022/08/08 11:44:19;;;;;;;;;;;27.30;89.50;;;;;;5107558;28;20111;-54
2022/08/08 11:46:45;;;;;;;;;;;27.60;88.90;;;;;;5108029;28;20074;-57
2022/08/08 11:49:12;;;;;;;;;;;27.80;88.20;;;;;;5107846;28;19949;-58
2022/08/08 11:51:39;;;;;;;;;;;27.90;87.60;;;;;;5101797;28;19939;-57
2022/08/08 11:54:06;;;;;;;;;;;27.90;87.30;;;;;;5087414;28;19951;-59
2022/08/08 11:56:33;;;;;;;;;;;27.90;87.40;;;;;;5087450;28;19912;-54
2022/08/08 11:59:06;;;;;;;;;;;27.80;87.70;;;;;;5087003;28;19919;-58
2022/08/08 12:01:33;;;;;;;;;;;27.60;88.20;;;;;;5087356;28;19908;-52
2022/08/08 12:03:59;;;;;;;;;;;27.50;88.50;;;;;;5087053;28;19912;-53
2022/08/08 12:06:25;;;;;;;;;;;27.50;88.80;;;;;;5087181;28;19965;-58
2022/08/08 12:08:51;;;;;;;;;;;27.50;89.00;;;;;;5087201;28;20269;-52
2022/08/08 12:11:18;;;;;;;;;;;27.50;89.20;;;;;;5087205;28;19916;-53
2022/08/08 12:13:48;;;;;;;;;;;27.40;89.30;;;;;;5086814;28;19912;-58
2022/08/08 12:16:15;;;;;;;;;;;27.40;89.60;;;;;;5087097;28;19946;-56
2022/08/08 12:18:44;;;;;;;;;;;27.30;89.80;;;;;;5086832;28;19908;-61
2022/08/08 12:21:30;;;;;;;;;;;27.30;89.90;;;;;;5086944;28;19912;-59
2022/08/08 12:24:07;;;;;;;;;;;27.30;90.00;;;;;;5086780;28;20104;-60
2022/08/08 12:26:37;;;;;;;;;;;27.30;90.00;;;;;;5086901;28;19908;-59
2022/08/08 12:29:19;;;;;;;;;;;27.40;90.10;;;;;;5086782;28;19944;-60
2022/08/08 12:31:45;;;;;;;;;;;27.40;90.10;;;;;;5086809;28;19909;-57
2022/08/08 12:34:11;;;;;;;;;;;27.40;90.20;;;;;;5086397;28;20200;-56
2022/08/08 12:36:41;;;;;;;;;;;27.40;90.20;;;;;;5086842;28;19908;-58
2022/08/08 12:39:07;;;;;;;;;;;27.40;90.20;;;;;;5086359;28;20196;-59
2022/08/08 12:41:36;;;;;;;;;;;27.50;90.30;;;;;;5086484;28;19911;-59
2022/08/08 12:44:07;;;;;;;;;;;27.50;90.30;;;;;;5086278;28;19947;-59
2022/08/08 12:46:33;;;;;;;;;;;27.50;90.40;;;;;;5086225;28;19947;-60
2022/08/08 12:49:01;;;;;;;;;;;27.50;90.40;;;;;;5086162;28;19912;-61
2022/08/08 12:51:37;;;;;;;;;;;27.50;90.50;;;;;;5085763;28;19924;-54
2022/08/08 12:54:06;;;;;;;;;;;27.50;90.60;;;;;;5086163;28;19959;-57
2022/08/08 12:56:33;;;;;;;;;;;27.50;90.60;;;;;;5086346;28;19908;-49
2022/08/08 12:58:59;;;;;;;;;;;27.50;90.80;;;;;;5078640;28;19913;-52
2022/08/08 13:01:33;;;;;;;;;;;27.50;90.90;;;;;;5077497;28;19908;-52
2022/08/08 13:03:59;;;;;;;;;;;27.50;90.90;;;;;;5065968;28;19913;-56
2022/08/08 13:06:25;;;;;;;;;;;27.50;91.00;;;;;;5066079;28;19915;-55
2022/08/08 13:08:52;;;;;;;;;;;27.50;91.00;;;;;;5066480;28;20216;-55
2022/08/08 13:11:21;;;;;;;;;;;27.50;91.10;;;;;;5066101;28;19909;-45
2022/08/08 13:14:00;;;;;;;;;;;27.50;91.10;;;;;;5073900;28;19912;-50
2022/08/08 13:16:28;;;;;;;;;;;27.50;91.10;;;;;;5086001;28;19908;-51
2022/08/08 13:18:57;;;;;;;;;;;27.60;91.10;;;;;;5085760;28;20027;-51
2022/08/08 13:21:23;;;;;;;;;;;27.60;91.10;;;;;;5085780;28;19912;-52
2022/08/08 13:23:50;;;;;;;;;;;27.50;91.10;;;;;;5077394;28;19908;-54
2022/08/08 13:26:16;;;;;;;;;;;27.60;91.10;;;;;;5065881;28;19909;-51
2022/08/08 13:28:42;;;;;;;;;;;27.60;91.10;;;;;;5075352;28;19920;-52
2022/08/08 13:31:11;;;;;;;;;;;27.70;91.10;;;;;;5079274;28;19908;-49
2022/08/08 13:33:39;;;;;;;;;;;27.70;91.10;;;;;;5076847;28;19932;-54
2022/08/08 13:36:09;;;;;;;;;;;27.70;91.10;;;;;;5085520;28;20104;-53
2022/08/08 13:38:36;;;;;;;;;;;27.70;90.30;;;;;;5085276;28;20104;-57
2022/08/08 13:41:03;;;;;;;;;;;27.80;90.50;;;;;;5085473;28;19912;-51
2022/08/08 13:43:29;;;;;;;;;;;27.80;90.40;;;;;;5085093;28;19916;-53
2022/08/08 13:46:08;;;;;;;;;;;27.80;90.10;;;;;;5085391;28;20034;-53
2022/08/08 13:48:44;;;;;;;;;;;27.90;90.00;;;;;;5085066;28;19919;-52
2022/08/08 13:51:11;;;;;;;;;;;27.90;90.10;;;;;;5085310;28;19908;-53
2022/08/08 13:53:39;;;;;;;;;;;28.00;90.40;;;;;;5085203;28;19920;-53
2022/08/08 13:56:07;;;;;;;;;;;28.00;90.30;;;;;;5084911;28;19916;-57
2022/08/08 13:58:34;;;;;;;;;;;28.00;90.40;;;;;;5067310;28;19915;-53
2022/08/08 14:01:16;;;;;;;;;;;28.00;90.40;;;;;;5085072;28;19946;-53
2022/08/08 14:03:56;;;;;;;;;;;28.00;90.10;;;;;;5084276;28;19919;-54
2022/08/08 14:06:22;;;;;;;;;;;28.00;90.00;;;;;;5084927;28;19938;-59
2022/08/08 14:08:49;;;;;;;;;;;28.10;90.50;;;;;;5085097;28;19916;-53
2022/08/08 14:11:19;;;;;;;;;;;28.10;90.10;;;;;;5085078;28;19912;-54
2022/08/08 14:13:46;;;;;;;;;;;28.10;90.20;;;;;;5084718;28;19913;-56
2022/08/08 14:16:12;;;;;;;;;;;28.10;90.00;;;;;;5085061;28;19911;-52
2022/08/08 14:18:56;;;;;;;;;;;28.10;89.50;;;;;;5084572;28;19966;-56
2022/08/08 14:21:39;;;;;;;;;;;28.10;90.00;;;;;;5084703;28;19908;-60
2022/08/08 14:24:06;;;;;;;;;;;28.10;90.10;;;;;;5084572;28;19948;-56
2022/08/08 14:26:32;;;;;;;;;;;28.10;90.00;;;;;;5084808;28;19912;-52
2022/08/08 14:28:58;;;;;;;;;;;28.10;90.10;;;;;;5084586;28;19934;-51
2022/08/08 14:31:25;;;;;;;;;;;28.20;90.20;;;;;;5084728;28;19908;-51
2022/08/08 14:33:53;;;;;;;;;;;28.10;90.00;;;;;;5084279;28;19920;-57
2022/08/08 14:36:30;;;;;;;;;;;28.20;89.80;;;;;;5084668;28;19908;-60
2022/08/08 14:38:57;;;;;;;;;;;28.10;89.80;;;;;;5084236;28;19908;-55